Time;durP1;ratioP1;P1;durP2;ratioP2;P2;SDS_P1;SDS_P2;PMS_P1;PMS_P2;Temp;Humidity;BMP_temperature;BMP_pressure;BME280_temperature;BME280_humidity;BME280_pressure;Samples;Min_cycle;Max_cycle;Signal;HPM_P1;HPM_P2
2023/11/20 00:02:25;;;;;;;8.70;6.30;;;;;;;-2.60;70.18;99395.27;106205;1254;72630;-73
2023/11/20 00:04:52;;;;;;;9.90;6.20;;;;;;;-2.51;70.24;99395.29;106189;1259;60486;-73
2023/11/20 00:07:20;;;;;;;13.90;7.30;;;;;;;-2.37;70.20;99389.75;105849;1258;60335;-72
2023/11/20 00:09:48;;;;;;;12.20;6.70;;;;;;;-2.34;70.17;99389.02;105852;1254;72642;-73
2023/11/20 00:12:16;;;;;;;11.90;7.30;;;;;;;-2.34;70.30;99388.19;105873;1254;69544;-74
2023/11/20 00:14:43;;;;;;;11.50;7.40;;;;;;;-2.34;70.31;99386.95;105814;1254;72625;-74
2023/11/20 00:17:13;;;;;;;11.80;7.80;;;;;;;-2.34;70.38;99383.63;105836;1253;60460;-74
2023/11/20 00:19:41;;;;;;;11.80;8.20;;;;;;;-2.36;70.34;99388.64;105967;1253;60852;-73
2023/11/20 00:22:09;;;;;;;10.50;7.60;;;;;;;-2.42;70.27;99387.98;105860;1259;73654;-74
2023/11/20 00:24:38;;;;;;;13.20;9.00;;;;;;;-2.44;70.56;99383.78;105805;1254;70145;-73
2023/11/20 00:27:05;;;;;;;10.90;8.10;;;;;;;-2.46;70.48;99386.85;105881;1254;72687;-73
2023/11/20 00:29:33;;;;;;;12.20;9.20;;;;;;;-2.49;70.64;99385.59;105800;1253;60525;-73
2023/11/20 00:32:00;;;;;;;12.20;8.80;;;;;;;-2.51;70.59;99383.84;105812;1254;60466;-74
2023/11/20 00:34:28;;;;;;;10.50;7.80;;;;;;;-2.54;70.65;99385.27;105981;1253;72805;-78
2023/11/20 00:36:56;;;;;;;15.70;9.60;;;;;;;-2.48;70.76;99383.64;106130;1254;69141;-77
2023/11/20 00:39:24;;;;;;;12.50;8.40;;;;;;;-2.34;70.73;99378.09;105793;1253;71476;-75
2023/11/20 00:41:52;;;;;;;14.50;10.40;;;;;;;-2.29;70.65;99378.84;105714;1259;60513;-75
2023/11/20 00:44:20;;;;;;;12.70;8.70;;;;;;;-2.29;70.96;99379.38;105851;1254;62073;-76
2023/11/20 00:46:49;;;;;;;13.80;9.50;;;;;;;-2.30;70.85;99379.75;105882;1257;72949;-76
2023/11/20 00:49:16;;;;;;;19.10;11.10;;;;;;;-2.34;70.86;99374.79;105905;1259;68367;-74
2023/11/20 00:51:45;;;;;;;19.40;12.80;;;;;;;-2.38;71.01;99370.50;106001;1259;70757;-75
2023/11/20 00:54:12;;;;;;;25.60;16.10;;;;;;;-2.41;71.00;99365.36;105827;1254;60527;-73
2023/11/20 00:56:40;;;;;;;19.30;13.10;;;;;;;-2.44;71.00;99363.08;105952;1254;60325;-73
2023/11/20 00:59:08;;;;;;;14.40;9.80;;;;;;;-2.45;71.09;99363.84;105898;1259;73904;-72
2023/11/20 01:01:38;;;;;;;14.10;8.90;;;;;;;-2.46;71.13;99359.59;105754;1253;69320;-72
2023/11/20 01:04:06;;;;;;;12.00;8.70;;;;;;;-2.47;71.26;99356.02;105507;1259;72667;-72
2023/11/20 01:06:38;;;;;;;9.40;7.50;;;;;;;-2.47;71.32;99351.84;105705;1262;60482;-72
2023/11/20 01:09:06;;;;;;;11.20;7.00;;;;;;;-2.46;71.21;99345.52;105786;1255;60380;-73
2023/11/20 01:11:34;;;;;;;9.10;7.10;;;;;;;-2.36;71.12;99346.28;105848;1254;73933;-71
2023/11/20 01:14:05;;;;;;;9.60;7.50;;;;;;;-2.23;71.03;99343.92;105864;1257;69006;-72
2023/11/20 01:16:32;;;;;;;10.00;7.60;;;;;;;-2.25;71.03;99344.71;105868;1256;73973;-73
2023/11/20 01:19:00;;;;;;;11.60;7.70;;;;;;;-2.26;71.49;99343.26;105626;1256;60418;-72
2023/11/20 01:21:27;;;;;;;9.80;7.50;;;;;;;-2.26;71.46;99342.05;105785;1254;60516;-74
2023/11/20 01:23:55;;;;;;;14.50;8.00;;;;;;;-2.26;71.37;99340.28;105769;1253;72619;-74
2023/11/20 01:26:23;;;;;;;10.10;7.90;;;;;;;-2.25;71.44;99342.67;105917;1259;68307;-74
2023/11/20 01:28:50;;;;;;;8.70;7.00;;;;;;;-2.27;71.33;99337.09;105786;1254;72775;-73
2023/11/20 01:31:19;;;;;;;11.60;6.40;;;;;;;-2.32;71.41;99335.30;105765;1259;60412;-73
2023/11/20 01:33:47;;;;;;;9.40;7.50;;;;;;;-2.36;71.53;99334.38;105834;1256;60402;-70
2023/11/20 01:36:17;;;;;;;9.40;7.30;;;;;;;-2.42;71.52;99332.27;105743;1253;73891;-72
2023/11/20 01:38:44;;;;;;;12.10;7.90;;;;;;;-2.45;71.72;99331.25;105892;1254;68893;-71
2023/11/20 01:41:12;;;;;;;12.20;7.20;;;;;;;-2.35;71.72;99332.22;105792;1259;72485;-74
2023/11/20 01:43:39;;;;;;;8.50;6.30;;;;;;;-2.26;71.63;99334.73;105695;1254;60526;-73
2023/11/20 01:46:09;;;;;;;8.30;6.20;;;;;;;-2.25;71.77;99331.56;105672;1254;60369;-75
2023/11/20 01:48:37;;;;;;;10.90;7.00;;;;;;;-2.27;71.91;99328.92;105999;1254;73914;-75
2023/11/20 01:51:04;;;;;;;10.40;7.50;;;;;;;-2.28;72.19;99326.39;105715;1259;69207;-74
2023/11/20 01:53:32;;;;;;;10.30;7.10;;;;;;;-2.27;72.18;99329.45;105888;1254;72404;-75
2023/11/20 01:56:00;;;;;;;10.80;7.20;;;;;;;-2.28;72.29;99330.36;105771;1259;60482;-76
2023/11/20 01:58:28;;;;;;;9.10;7.00;;;;;;;-2.31;72.23;99325.86;105808;1253;61116;-77
2023/11/20 02:00:55;;;;;;;12.10;8.10;;;;;;;-2.33;72.15;99330.83;105542;1262;71719;-77
2023/11/20 02:03:23;;;;;;;10.90;7.30;;;;;;;-2.34;72.22;99330.40;105705;1259;69985;-77
2023/11/20 02:05:51;;;;;;;10.60;7.70;;;;;;;-2.35;72.20;99329.10;105785;1254;72918;-75
2023/11/20 02:08:18;;;;;;;11.80;7.00;;;;;;;-2.36;72.17;99331.54;105885;1254;61007;-75
2023/11/20 02:10:47;;;;;;;8.20;6.00;;;;;;;-2.25;72.01;99330.52;105844;1254;60536;-74
2023/11/20 02:13:15;;;;;;;9.80;6.30;;;;;;;-2.11;71.78;99330.19;105896;1254;72680;-74
2023/11/20 02:15:42;;;;;;;8.50;6.10;;;;;;;-2.10;71.67;99326.63;105722;1253;70129;-72
2023/11/20 02:18:35;;;;;;;13.40;6.90;;;;;;;-2.16;71.72;99326.81;105651;1254;72705;-74
2023/11/20 02:21:04;;;;;;;10.60;6.80;;;;;;;-2.19;71.73;99327.54;105698;1257;60463;-73
2023/11/20 02:23:33;;;;;;;9.40;7.00;;;;;;;-2.22;71.66;99328.58;105825;1259;60421;-73
2023/11/20 02:26:08;;;;;;;11.10;8.30;;;;;;;-2.23;71.58;99324.84;105820;1259;73889;-72
2023/11/20 02:28:40;;;;;;;10.60;7.50;;;;;;;-2.24;71.57;99323.37;105968;1253;69512;-71
2023/11/20 02:31:07;;;;;;;8.90;7.00;;;;;;;-2.27;71.25;99324.41;105808;1259;72676;-71
2023/11/20 02:33:36;;;;;;;9.90;7.30;;;;;;;-2.30;71.26;99320.81;105787;1255;60506;-73
2023/11/20 02:36:04;;;;;;;9.30;7.10;;;;;;;-2.34;71.19;99317.75;105871;1254;60588;-73
2023/11/20 02:38:33;;;;;;;10.70;7.30;;;;;;;-2.39;71.18;99316.12;105936;1254;73861;-73
2023/11/20 02:41:01;;;;;;;11.10;7.50;;;;;;;-2.42;71.29;99311.66;105914;1256;68902;-75
2023/11/20 02:43:29;;;;;;;8.00;6.40;;;;;;;-2.35;71.16;99312.45;105699;1254;74142;-73
2023/11/20 02:45:56;;;;;;;9.00;6.30;;;;;;;-2.25;70.98;99317.70;106027;1254;60469;-77
2023/11/20 02:48:26;;;;;;;8.10;6.30;;;;;;;-2.24;71.01;99313.47;105951;1259;60431;-76
2023/11/20 02:50:53;;;;;;;8.80;6.30;;;;;;;-2.26;71.09;99316.35;105765;1254;72743;-75
2023/11/20 02:53:21;;;;;;;8.10;6.20;;;;;;;-2.27;71.20;99314.90;105706;1259;68929;-76
2023/11/20 02:55:50;;;;;;;10.20;7.00;;;;;;;-2.30;71.07;99313.53;105837;1255;70925;-75
2023/11/20 02:58:18;;;;;;;13.90;7.50;;;;;;;-2.34;71.11;99308.89;106019;1260;60302;-74
2023/11/20 03:00:46;;;;;;;18.40;12.00;;;;;;;-2.36;71.17;99303.84;105670;1254;62013;-77
2023/11/20 03:03:15;;;;;;;11.10;7.70;;;;;;;-2.39;71.06;99298.96;105781;1254;72641;-77
2023/11/20 03:05:44;;;;;;;10.10;7.20;;;;;;;-2.41;71.17;99294.55;105926;1259;69097;-78
2023/11/20 03:08:11;;;;;;;10.80;7.50;;;;;;;-2.41;71.25;99289.71;105871;1253;72596;-77
2023/11/20 03:10:39;;;;;;;11.80;8.60;;;;;;;-2.42;71.25;99287.91;106782;1254;62281;-77
2023/11/20 03:13:09;;;;;;;11.70;7.30;;;;;;;-2.45;71.22;99284.59;107653;1259;58810;-75
2023/11/20 03:15:38;;;;;;;9.90;7.10;;;;;;;-2.37;71.02;99280.11;105899;1259;72793;-76
2023/11/20 03:18:06;;;;;;;9.00;6.70;;;;;;;-2.27;71.09;99271.68;106133;1259;70659;-77
2023/11/20 03:20:34;;;;;;;8.50;6.70;;;;;;;-2.29;71.13;99267.27;105893;1258;71368;-77
2023/11/20 03:23:01;;;;;;;12.10;6.90;;;;;;;-2.31;71.11;99264.81;105717;1254;60453;-76
2023/11/20 03:25:30;;;;;;;9.10;7.40;;;;;;;-2.32;71.24;99264.58;105704;1254;60456;-76
2023/11/20 03:27:57;;;;;;;11.10;7.10;;;;;;;-2.33;71.25;99262.71;105859;1254;73924;-78
2023/11/20 03:30:27;;;;;;;10.10;7.10;;;;;;;-2.35;71.22;99260.54;105904;1254;69383;-76
2023/11/20 03:32:55;;;;;;;9.80;7.50;;;;;;;-2.38;71.30;99263.52;105963;1257;70885;-75
2023/11/20 03:35:22;;;;;;;12.50;9.40;;;;;;;-2.40;71.34;99262.98;105832;1255;60558;-73
2023/11/20 03:37:50;;;;;;;11.90;8.00;;;;;;;-2.44;71.41;99264.09;105833;1254;62320;-76
2023/11/20 03:40:18;;;;;;;13.70;8.20;;;;;;;-2.48;71.43;99260.20;105835;1259;73830;-76
2023/11/20 03:42:46;;;;;;;11.60;7.50;;;;;;;-2.44;71.50;99256.29;105805;1254;69276;-75
2023/11/20 03:45:13;;;;;;;11.40;7.50;;;;;;;-2.32;71.50;99252.08;105747;1258;71883;-71
2023/11/20 03:47:41;;;;;;;13.10;7.20;;;;;;;-2.31;71.52;99249.55;105844;1259;60543;-72
2023/11/20 03:50:09;;;;;;;10.50;7.10;;;;;;;-2.34;71.68;99246.48;105746;1254;60581;-70
2023/11/20 03:52:36;;;;;;;9.70;6.50;;;;;;;-2.36;72.04;99244.33;105874;1254;73976;-69
2023/11/20 03:55:04;;;;;;;9.90;7.10;;;;;;;-2.38;71.97;99239.05;105817;1259;68946;-73
2023/11/20 03:57:32;;;;;;;9.30;6.90;;;;;;;-2.41;72.02;99240.31;105630;1255;71165;-72
2023/11/20 03:59:59;;;;;;;9.10;7.10;;;;;;;-2.46;72.05;99240.80;105741;1254;60515;-72
2023/11/20 04:02:27;;;;;;;10.10;7.40;;;;;;;-2.50;72.34;99239.48;105713;1254;60524;-71
2023/11/20 04:04:55;;;;;;;12.60;7.20;;;;;;;-2.52;72.35;99238.96;105728;1254;73056;-70
2023/11/20 04:07:23;;;;;;;11.20;8.50;;;;;;;-2.57;72.36;99239.05;105762;1259;68841;-71
2023/11/20 04:09:50;;;;;;;9.80;7.10;;;;;;;-2.58;72.55;99240.53;105755;1254;71472;-73
2023/11/20 04:12:18;;;;;;;11.60;7.10;;;;;;;-2.47;72.41;99240.55;105600;1254;203526;-72
2023/11/20 04:17:40;;;;;;;9.50;7.10;;;;;;;-2.34;72.47;99240.03;102688;1292;601363;-76
2023/11/20 04:20:10;;;;;;;10.10;6.90;;;;;;;-2.39;72.47;99236.51;105677;1257;59364;-72
2023/11/20 04:22:38;;;;;;;11.10;7.40;;;;;;;-2.37;72.68;99238.33;105613;1257;59953;-74
2023/11/20 04:25:06;;;;;;;9.40;7.50;;;;;;;-2.37;72.84;99239.31;105513;1257;70634;-73
2023/11/20 04:27:34;;;;;;;11.60;7.60;;;;;;;-2.37;72.74;99236.77;105536;1257;69029;-72
2023/11/20 04:30:02;;;;;;;10.90;8.10;;;;;;;-2.40;72.80;99238.83;105567;1255;73183;-71
2023/11/20 04:32:29;;;;;;;10.50;7.40;;;;;;;-2.41;72.92;99235.80;105494;1259;218933;-73
2023/11/20 04:34:57;;;;;;;13.40;9.00;;;;;;;-2.43;72.79;99235.41;105731;1254;59964;-72
2023/11/20 04:37:24;;;;;;;12.10;8.40;;;;;;;-2.45;72.89;99237.77;105770;1254;69753;-73
2023/11/20 04:39:52;;;;;;;9.70;7.60;;;;;;;-2.36;72.74;99238.45;105632;1259;68718;-70
2023/11/20 04:42:20;;;;;;;11.40;7.20;;;;;;;-2.24;72.69;99240.61;105797;1253;72304;-73
2023/11/20 04:44:47;;;;;;;12.90;7.90;;;;;;;-2.23;72.81;99236.36;105877;1254;59682;-72
2023/11/20 04:47:15;;;;;;;11.90;8.10;;;;;;;-2.24;73.21;99232.10;105850;1254;59965;-74
2023/11/20 04:49:42;;;;;;;11.20;7.90;;;;;;;-2.24;73.36;99230.33;105926;1256;71863;-72
2023/11/20 04:52:10;;;;;;;9.90;7.80;;;;;;;-2.25;73.09;99228.48;105865;1254;70130;-75
2023/11/20 04:54:37;;;;;;;13.80;8.10;;;;;;;-2.28;73.16;99232.51;105986;1252;72653;-74
2023/11/20 04:57:05;;;;;;;12.80;8.30;;;;;;;-2.30;73.36;99232.48;105918;1254;59734;-74
2023/11/20 04:59:32;;;;;;;13.30;9.30;;;;;;;-2.33;73.63;99232.15;105877;1254;59717;-76
2023/11/20 05:02:00;;;;;;;13.80;9.80;;;;;;;-2.35;73.66;99231.11;105805;1253;71730;-71
2023/11/20 05:04:27;;;;;;;17.60;10.70;;;;;;;-2.37;73.83;99230.83;105791;1258;69254;-71
2023/11/20 05:06:55;;;;;;;15.80;9.20;;;;;;;-2.38;73.74;99230.73;105698;1259;72870;-72
2023/11/20 05:09:23;;;;;;;14.30;9.60;;;;;;;-2.29;73.84;99234.30;105880;1254;60945;-76
2023/11/20 05:11:50;;;;;;;14.20;8.10;;;;;;;-2.18;73.68;99233.48;105892;1256;60343;-75
2023/11/20 05:14:18;;;;;;;15.60;9.40;;;;;;;-2.17;73.93;99233.89;105948;1257;73051;-75
2023/11/20 05:16:46;;;;;;;14.90;9.80;;;;;;;-2.18;73.76;99231.87;106079;1253;68995;-75
2023/11/20 05:19:13;;;;;;;15.30;9.80;;;;;;;-2.20;74.05;99234.46;106015;1259;72708;-75
2023/11/20 05:21:47;;;;;;;13.90;8.50;;;;;;;-2.21;73.95;99233.31;105976;1257;59624;-75
2023/11/20 05:24:15;;;;;;;21.10;9.00;;;;;;;-2.24;74.05;99230.00;105953;1259;59994;-74
2023/11/20 05:26:42;;;;;;;16.30;10.30;;;;;;;-2.26;73.94;99229.07;105887;1253;73065;-74
2023/11/20 05:29:12;;;;;;;15.10;8.40;;;;;;;-2.30;74.01;99227.97;105740;1260;68991;-75
2023/11/20 05:31:39;;;;;;;15.50;9.30;;;;;;;-2.31;74.02;99232.90;105727;1260;71121;-74
2023/11/20 05:34:07;;;;;;;11.40;7.80;;;;;;;-2.23;73.93;99235.30;105779;1257;59624;-74
2023/11/20 05:36:34;;;;;;;13.00;9.40;;;;;;;-2.10;73.57;99229.96;105819;1259;61902;-73
2023/11/20 05:39:02;;;;;;;13.80;8.80;;;;;;;-2.06;73.77;99230.25;105815;1254;72989;-74
2023/11/20 05:41:30;;;;;;;12.80;8.60;;;;;;;-2.07;73.87;99232.09;105776;1259;69049;-75
2023/11/20 05:43:57;;;;;;;10.80;7.90;;;;;;;-2.10;73.75;99233.64;105997;1253;71362;-74
2023/11/20 05:46:25;;;;;;;12.20;8.80;;;;;;;-2.14;73.77;99230.93;105850;1254;59672;-74
2023/11/20 05:48:52;;;;;;;11.10;8.80;;;;;;;-2.18;73.83;99234.12;105908;1257;60092;-73
2023/11/20 05:51:20;;;;;;;14.60;9.60;;;;;;;-2.18;73.88;99231.75;105788;1255;73293;-75
2023/11/20 05:53:47;;;;;;;13.90;9.20;;;;;;;-2.20;73.89;99235.67;105590;1254;70751;-72
2023/11/20 05:56:15;;;;;;;13.80;8.70;;;;;;;-2.22;74.05;99236.11;105996;1257;72674;-74
2023/11/20 05:58:42;;;;;;;14.90;9.00;;;;;;;-2.21;74.15;99236.77;105940;1259;59752;-75
2023/11/20 06:01:12;;;;;;;15.00;9.30;;;;;;;-2.11;73.93;99239.75;106116;1256;59787;-77
2023/11/20 06:03:40;;;;;;;15.60;9.80;;;;;;;-1.98;73.82;99244.46;106301;1254;73136;-78
2023/11/20 06:06:07;;;;;;;16.20;10.70;;;;;;;-1.95;74.05;99249.13;105971;1259;69154;-79
2023/11/20 06:08:36;;;;;;;12.30;8.80;;;;;;;-1.98;74.21;99249.15;105983;1259;72718;-77
2023/11/20 06:11:03;;;;;;;12.80;9.00;;;;;;;-2.00;74.43;99253.30;106174;1253;59683;-77
2023/11/20 06:13:31;;;;;;;12.70;9.10;;;;;;;-2.00;74.72;99250.86;106845;1259;60014;-78
2023/11/20 06:15:58;;;;;;;15.20;9.80;;;;;;;-1.99;74.71;99256.16;108279;1257;73270;-82
2023/11/20 06:18:26;;;;;;;12.60;8.50;;;;;;;-2.00;74.66;99250.87;108522;1256;69002;-80
2023/11/20 06:20:54;;;;;;;10.80;7.90;;;;;;;-2.00;74.70;99247.91;108988;1255;70927;-81
2023/11/20 06:23:21;;;;;;;10.90;8.00;;;;;;;-1.88;74.77;99247.98;107740;1256;61051;-80
2023/11/20 06:25:49;;;;;;;14.20;9.00;;;;;;;-1.77;74.58;99249.00;107274;1261;59124;-80
2023/11/20 06:28:16;;;;;;;14.30;8.80;;;;;;;-1.74;74.83;99249.54;107711;1254;71556;-82
2023/11/20 06:30:44;;;;;;;13.40;9.40;;;;;;;-1.73;74.98;99252.61;107519;1253;67939;-74
2023/11/20 06:33:11;;;;;;;15.20;9.60;;;;;;;-1.73;75.07;99251.52;106491;1256;71349;-79
2023/11/20 06:35:39;;;;;;;14.70;10.20;;;;;;;-1.75;75.13;99252.67;106828;1253;60186;-77
2023/11/20 06:38:06;;;;;;;15.60;9.20;;;;;;;-1.73;75.26;99255.19;106181;1254;59813;-79
2023/11/20 06:40:34;;;;;;;11.90;8.10;;;;;;;-1.73;75.23;99257.41;106163;1253;71768;-79
2023/11/20 06:43:04;;;;;;;11.60;8.30;;;;;;;-1.74;75.07;99259.54;106395;1257;69121;-76
2023/11/20 06:45:32;;;;;;;13.60;8.50;;;;;;;-1.70;74.97;99258.79;107099;1255;74538;-78
2023/11/20 06:47:59;;;;;;;12.60;8.50;;;;;;;-1.58;74.82;99262.29;107237;1254;60092;-79
2023/11/20 06:50:27;;;;;;;11.60;7.90;;;;;;;-1.54;74.62;99261.22;108058;1253;61952;-78
2023/11/20 06:52:55;;;;;;;11.70;8.50;;;;;;;-1.55;74.86;99260.87;109257;1253;71559;-80
2023/11/20 06:55:22;;;;;;;12.40;8.30;;;;;;;-1.53;74.89;99263.00;109188;1253;68738;-79
2023/11/20 06:57:50;;;;;;;12.70;8.70;;;;;;;-1.49;74.79;99263.84;109134;1256;70160;-79
2023/11/20 07:00:18;;;;;;;10.60;8.60;;;;;;;-1.49;74.67;99260.00;109147;1255;58534;-80
2023/11/20 07:02:46;;;;;;;13.00;8.90;;;;;;;-1.46;74.32;99263.06;109309;1253;58900;-80
2023/11/20 07:05:14;;;;;;;12.60;9.80;;;;;;;-1.44;74.11;99263.63;109199;1253;71793;-79
2023/11/20 07:07:51;;;;;;;15.60;8.60;;;;;;;-1.43;73.73;99261.67;109167;1253;69203;-81
2023/11/20 07:10:25;;;;;;;10.50;8.00;;;;;;;-1.31;73.60;99265.21;108890;1255;71313;-81
2023/11/20 07:12:53;;;;;;;12.10;7.90;;;;;;;-1.16;73.26;99260.35;109023;1253;58117;-80
2023/11/20 07:15:22;;;;;;;11.20;8.60;;;;;;;-1.12;72.91;99260.27;109304;1253;59632;-78
2023/11/20 07:17:50;;;;;;;11.90;9.00;;;;;;;-1.12;72.75;99260.27;109296;1253;72119;-80
2023/11/20 07:20:17;;;;;;;13.40;9.10;;;;;;;-1.12;72.76;99256.98;109004;1256;68971;-79
2023/11/20 07:22:45;;;;;;;14.10;9.80;;;;;;;-1.11;72.71;99256.21;109289;1252;71492;-79
2023/11/20 07:25:13;;;;;;;15.60;10.50;;;;;;;-1.10;72.58;99255.40;109187;1253;57265;-80
2023/11/20 07:27:40;;;;;;;18.20;11.00;;;;;;;-1.07;72.57;99250.52;109142;1254;60592;-79
2023/11/20 07:30:09;;;;;;;16.10;11.00;;;;;;;-1.07;72.41;99241.27;109068;1253;71810;-79
2023/11/20 07:32:36;;;;;;;13.40;9.10;;;;;;;-1.04;72.34;99241.08;109253;1253;68759;-79
2023/11/20 07:35:05;;;;;;;15.20;9.50;;;;;;;-1.00;72.06;99242.40;109298;1253;71276;-79
2023/11/20 07:37:32;;;;;;;11.60;9.10;;;;;;;-0.88;71.96;99241.05;109206;1256;59748;-79
2023/11/20 07:42:19;;;;;;;13.60;10.00;;;;;;;-0.64;72.30;99238.48;106484;1286;600115;-80
2023/11/20 07:44:47;;;;;;;12.60;10.20;;;;;;;-0.57;71.99;99239.05;108925;1260;57967;-81
2023/11/20 07:47:15;;;;;;;13.20;10.40;;;;;;;-0.48;71.81;99234.36;108878;1260;61368;-81
2023/11/20 07:49:43;;;;;;;17.00;11.30;;;;;;;-0.38;71.95;99236.30;108894;1261;70651;-79
2023/11/20 07:54:59;;;;;;;16.20;12.00;;;;;;;-0.17;71.47;99238.23;106151;1292;600809;-80
2023/11/20 07:57:26;;;;;;;13.60;11.00;;;;;;;-0.14;71.20;99238.36;108693;1266;56806;-79
2023/11/20 07:59:53;;;;;;;17.10;12.10;;;;;;;-0.12;70.93;99239.58;108867;1262;56774;-81
2023/11/20 08:02:20;;;;;;;15.70;10.80;;;;;;;-0.04;70.97;99236.06;108829;1264;56741;-79
2023/11/20 08:04:47;;;;;;;14.30;10.30;;;;;;;0.16;70.77;99232.86;108809;1264;69198;-80
2023/11/20 08:07:14;;;;;;;14.10;10.00;;;;;;;0.26;70.63;99229.69;108708;1265;191946;-76
2023/11/20 08:09:41;;;;;;;12.00;9.30;;;;;;;0.32;70.73;99229.18;109177;1254;58357;-79
2023/11/20 08:12:07;;;;;;;12.50;9.60;;;;;;;0.39;70.61;99227.11;109458;1254;60218;-81
2023/11/20 08:14:37;;;;;;;13.70;9.60;;;;;;;0.45;70.72;99223.73;109413;1254;71141;-81
2023/11/20 08:17:04;;;;;;;10.80;9.20;;;;;;;0.51;70.54;99223.09;109386;1254;69016;-80
2023/11/20 08:19:31;;;;;;;10.50;8.30;;;;;;;0.49;70.29;99221.98;109168;1256;71221;-83
2023/11/20 08:21:57;;;;;;;11.00;8.30;;;;;;;0.45;70.36;99219.54;109465;1254;58505;-80
2023/11/20 08:24:24;;;;;;;12.00;8.10;;;;;;;0.38;70.25;99212.54;109439;1254;60043;-80
2023/11/20 08:26:51;;;;;;;11.80;8.40;;;;;;;0.38;70.40;99212.71;109438;1254;71499;-81
2023/11/20 08:29:19;;;;;;;9.50;7.80;;;;;;;0.57;70.40;99211.27;109386;1254;68833;-79
2023/11/20 08:31:47;;;;;;;10.60;8.30;;;;;;;0.75;69.96;99208.02;109308;1254;72006;-81
2023/11/20 08:34:14;;;;;;;10.10;7.80;;;;;;;0.84;69.98;99202.26;109085;1256;59417;-79
2023/11/20 08:36:42;;;;;;;12.40;9.20;;;;;;;0.94;69.75;99202.55;109107;1254;58747;-81
2023/11/20 08:39:12;;;;;;;9.90;8.40;;;;;;;1.04;69.89;99199.14;109355;1254;71592;-80
2023/11/20 08:41:39;;;;;;;11.40;9.00;;;;;;;1.18;69.45;99199.92;109411;1254;69097;-79
2023/11/20 08:44:09;;;;;;;12.70;9.10;;;;;;;1.29;68.96;99197.98;109323;1254;71281;-80
2023/11/20 08:46:35;;;;;;;12.70;9.10;;;;;;;1.46;69.02;99202.66;109357;1254;58161;-81
2023/11/20 08:49:03;;;;;;;12.10;9.60;;;;;;;1.67;69.01;99204.61;109189;1255;58974;-83
2023/11/20 08:51:30;;;;;;;12.20;9.10;;;;;;;1.87;67.89;99203.83;109204;1256;70580;-75
2023/11/20 08:53:57;;;;;;;10.30;8.20;;;;;;;2.09;67.96;99205.89;109409;1254;69098;-79
2023/11/20 08:56:24;;;;;;;11.90;7.80;;;;;;;2.46;67.69;99202.78;108228;1254;71227;-80
2023/11/20 08:58:51;;;;;;;9.00;7.90;;;;;;;2.81;66.67;99198.59;108738;1254;60089;-79
2023/11/20 09:01:28;;;;;;;10.90;8.10;;;;;;;3.10;65.96;99192.92;109214;1256;59560;-79
2023/11/20 09:03:56;;;;;;;10.70;8.60;;;;;;;3.45;65.01;99193.52;109392;1254;72274;-80
2023/11/20 09:06:22;;;;;;;10.40;8.00;;;;;;;3.72;64.02;99188.68;109388;1254;68942;-78
2023/11/20 09:08:49;;;;;;;10.90;9.30;;;;;;;4.01;63.67;99185.56;109341;1254;71686;-80
2023/11/20 09:11:16;;;;;;;9.90;8.30;;;;;;;4.42;62.55;99183.24;109136;1257;58112;-80
2023/11/20 09:13:43;;;;;;;11.00;8.40;;;;;;;4.90;61.62;99178.70;109386;1254;58959;-80
2023/11/20 09:16:10;;;;;;;10.40;8.80;;;;;;;5.35;60.74;99179.00;109363;1254;71825;-80
2023/11/20 09:18:37;;;;;;;9.50;8.50;;;;;;;5.81;60.06;99179.23;109232;1256;69068;-80
2023/11/20 09:21:04;;;;;;;10.10;8.60;;;;;;;6.30;58.78;99173.52;109364;1254;71269;-79
2023/11/20 09:23:31;;;;;;;9.10;7.60;;;;;;;6.67;56.96;99172.63;109341;1255;58113;-79
2023/11/20 09:25:58;;;;;;;12.50;8.20;;;;;;;6.92;56.01;99168.98;109038;1254;58897;-80
2023/11/20 09:28:25;;;;;;;11.30;10.10;;;;;;;7.32;55.74;99160.83;109342;1254;71703;-78
2023/11/20 09:30:53;;;;;;;9.80;8.40;;;;;;;7.93;54.02;99155.39;109104;1256;69333;-78
2023/11/20 09:33:19;;;;;;;10.30;9.20;;;;;;;8.52;52.98;99154.98;109137;1254;72533;-79
2023/11/20 09:35:46;;;;;;;10.00;8.90;;;;;;;9.13;52.37;99150.20;109166;1254;58144;-80
2023/11/20 09:38:13;;;;;;;11.40;9.40;;;;;;;9.74;51.25;99149.55;109124;1254;58915;-76
2023/11/20 09:40:42;;;;;;;10.70;8.70;;;;;;;10.24;49.85;99151.45;109077;1254;70870;-79
2023/11/20 09:43:10;;;;;;;10.70;8.20;;;;;;;10.76;48.94;99151.34;109328;1254;69196;-80
2023/11/20 09:45:42;;;;;;;10.80;8.60;;;;;;;11.27;47.83;99149.69;109219;1254;71256;-79
2023/11/20 09:48:19;;;;;;;10.70;8.90;;;;;;;11.68;46.34;99149.78;109323;1254;58782;-81
2023/11/20 09:50:47;;;;;;;12.20;9.80;;;;;;;11.91;45.49;99143.48;109137;1254;59022;-78
2023/11/20 09:53:35;;;;;;;10.50;8.60;;;;;;;12.19;45.59;99141.66;109095;1256;71954;-80
2023/11/20 09:56:04;;;;;;;9.60;8.60;;;;;;;12.53;44.87;99141.12;109288;1254;68898;-78
2023/11/20 09:58:31;;;;;;;10.10;8.40;;;;;;;12.92;44.04;99140.56;109060;1255;72524;-80
2023/11/20 10:01:09;;;;;;;8.70;7.60;;;;;;;12.97;43.04;99136.24;109073;1254;59101;-78
2023/11/20 10:03:37;;;;;;;9.10;7.90;;;;;;;12.81;43.00;99137.89;108873;1256;59128;-79
2023/11/20 10:06:08;;;;;;;8.20;7.40;;;;;;;12.84;43.22;99141.46;109084;1254;72389;-80
2023/11/20 10:08:38;;;;;;;8.50;7.70;;;;;;;13.17;42.39;99135.62;108654;1255;70469;-81
2023/11/20 10:11:05;;;;;;;8.00;7.20;;;;;;;13.45;42.26;99133.35;109106;1254;71525;-81
2023/11/20 10:13:32;;;;;;;9.00;8.20;;;;;;;13.81;41.81;99130.78;109065;1254;60467;-81
2023/11/20 10:15:59;;;;;;;9.30;8.40;;;;;;;14.12;41.13;99132.27;108803;1254;60216;-81
2023/11/20 10:18:26;;;;;;;9.40;8.50;;;;;;;14.34;40.44;99130.05;108311;1256;71893;-79
2023/11/20 10:20:53;;;;;;;9.30;8.20;;;;;;;14.61;40.40;99131.76;109095;1254;69444;-80
2023/11/20 10:23:21;;;;;;;9.20;8.30;;;;;;;15.03;39.58;99128.58;108759;1255;71562;-81
2023/11/20 10:25:48;;;;;;;8.40;7.60;;;;;;;15.46;39.01;99123.71;108547;1256;60219;-82
2023/11/20 10:28:16;;;;;;;9.90;8.60;;;;;;;15.79;38.39;99122.45;108034;1254;59783;-81
2023/11/20 10:30:45;;;;;;;8.20;7.40;;;;;;;16.15;38.21;99120.83;109090;1256;72153;-80
2023/11/20 10:33:17;;;;;;;7.50;6.80;;;;;;;16.45;37.32;99119.73;108863;1256;70053;-77
2023/11/20 10:35:45;;;;;;;7.00;6.30;;;;;;;16.54;37.32;99120.75;108923;1254;70218;-80
2023/11/20 10:38:12;;;;;;;8.20;7.20;;;;;;;16.87;36.78;99121.52;108802;1254;59509;-82
2023/11/20 10:40:43;;;;;;;8.30;7.50;;;;;;;17.09;35.48;99123.16;108834;1254;59611;-80
2023/11/20 10:43:15;;;;;;;9.70;8.00;;;;;;;16.87;35.60;99123.51;108822;1257;72833;-79
2023/11/20 10:45:43;;;;;;;9.30;8.40;;;;;;;17.00;36.26;99124.42;107696;1254;68958;-80
2023/11/20 10:48:12;;;;;;;10.10;9.10;;;;;;;17.36;35.23;99120.75;107966;1260;71184;-78
2023/11/20 10:50:41;;;;;;;9.40;8.50;;;;;;;17.62;35.00;99114.01;107345;1254;59541;-82
2023/11/20 10:53:08;;;;;;;9.00;8.20;;;;;;;17.99;34.45;99114.27;106062;1254;60138;-81
2023/11/20 10:55:50;;;;;;;9.80;7.80;;;;;;;18.23;33.65;99117.45;106122;1254;72849;-82
2023/11/20 10:58:17;;;;;;;9.30;8.30;;;;;;;17.90;33.65;99117.90;106170;1261;70096;-82
2023/11/20 11:00:45;;;;;;;9.10;8.20;;;;;;;17.51;34.41;99112.11;107260;1254;71904;-79
2023/11/20 11:03:14;;;;;;;14.10;9.50;;;;;;;17.10;34.69;99119.11;106668;1256;60464;-80
2023/11/20 11:05:45;;;;;;;9.60;8.60;;;;;;;16.75;34.71;99120.36;106038;1256;59698;-81
2023/11/20 11:08:13;;;;;;;9.40;8.50;;;;;;;16.23;35.06;99119.75;106059;1260;74238;-80
2023/11/20 11:10:41;;;;;;;11.60;8.60;;;;;;;15.66;35.51;99123.07;106289;1257;69577;-80
2023/11/20 11:13:08;;;;;;;9.40;8.20;;;;;;;15.28;35.80;99118.70;106715;1254;72763;-82
2023/11/20 11:15:36;;;;;;;9.40;7.70;;;;;;;14.99;36.10;99122.02;106023;1254;60338;-80
2023/11/20 11:18:04;;;;;;;9.30;8.40;;;;;;;14.50;36.33;99128.09;106010;1254;60326;-81
2023/11/20 11:20:52;;;;;;;9.50;8.50;;;;;;;13.77;36.79;99125.44;106049;1256;71611;-80
2023/11/20 11:23:29;;;;;;;9.00;7.90;;;;;;;13.16;37.76;99123.56;105918;1256;70250;-78
2023/11/20 11:26:45;;;;;;;7.40;6.60;;;;;;;12.85;38.24;99119.65;105647;1259;74345;-80
2023/11/20 11:29:16;;;;;;;7.60;6.80;;;;;;;12.48;38.50;99118.67;105744;1259;59602;-80
2023/11/20 11:32:11;;;;;;;8.70;7.80;;;;;;;12.33;39.08;99119.00;105858;1254;60295;-80
2023/11/20 11:35:17;;;;;;;10.00;8.60;;;;;;;12.48;39.43;99109.73;105865;1259;73133;-78